Time;durP1;ratioP1;P1;durP2;ratioP2;P2;SDS_P1;SDS_P2;PMS_P1;PMS_P2;Temp;Humidity;BMP_temperature;BMP_pressure;BME280_temperature;BME280_humidity;BME280_pressure;Samples;Min_cycle;Max_cycle;Signal;HPM_P1;HPM_P2
2023/09/11 00:00:25;;;;;;;12.60;11.80;;;22.90;23.80;;;;;;4929460;29;20546;-76
2023/09/11 00:02:51;;;;;;;13.80;12.53;;;22.90;23.70;;;;;;4926954;29;20212;-76
2023/09/11 00:05:16;;;;;;;12.40;11.60;;;23.00;23.70;;;;;;4927089;29;20184;-76
2023/09/11 00:07:42;;;;;;;12.20;11.40;;;23.00;23.70;;;;;;4925350;29;20214;-77
2023/09/11 00:10:08;;;;;;;12.00;11.20;;;22.90;23.60;;;;;;4928934;29;20910;-77
2023/09/11 00:12:33;;;;;;;12.20;11.40;;;22.90;23.70;;;;;;4928660;29;20538;-76
2023/09/11 00:14:59;;;;;;;13.80;12.57;;;22.90;23.60;;;;;;4925908;29;20444;-76
2023/09/11 00:17:25;;;;;;;12.43;11.57;;;22.90;23.60;;;;;;4926367;29;20184;-76
2023/09/11 00:19:50;;;;;;;13.17;12.17;;;22.90;23.60;;;;;;4928125;29;20247;-77
2023/09/11 00:22:16;;;;;;;13.80;12.97;;;22.90;23.60;;;;;;4929428;29;20184;-77
2023/09/11 00:24:41;;;;;;;13.40;12.50;;;22.90;23.70;;;;;;4927470;29;20216;-77
2023/09/11 00:27:07;;;;;;;12.87;12.07;;;22.80;23.60;;;;;;4921831;29;20276;-77
2023/09/11 00:29:32;;;;;;;13.70;12.70;;;22.90;23.80;;;;;;4923002;29;20245;-78
2023/09/11 00:31:58;;;;;;;12.90;12.10;;;22.90;23.90;;;;;;4929046;29;20184;-77
2023/09/11 00:34:23;;;;;;;13.83;12.73;;;22.90;24.00;;;;;;4928727;29;20203;-77
2023/09/11 00:36:49;;;;;;;12.80;12.00;;;22.90;24.00;;;;;;4926252;29;20287;-77
2023/09/11 00:39:14;;;;;;;12.77;11.87;;;22.80;24.00;;;;;;4924131;29;20271;-77
2023/09/11 00:41:42;;;;;;;13.37;12.33;;;22.90;24.30;;;;;;4926567;29;20632;-77
2023/09/11 00:44:08;;;;;;;12.23;11.53;;;22.80;24.20;;;;;;4928637;29;20588;-77
2023/09/11 00:46:34;;;;;;;12.80;11.90;;;22.80;24.30;;;;;;4928524;29;20423;-77
2023/09/11 00:49:00;;;;;;;12.93;12.13;;;22.80;24.40;;;;;;4925106;29;20688;-77
2023/09/11 00:51:26;;;;;;;14.00;13.10;;;22.70;24.40;;;;;;4924590;29;20192;-77
2023/09/11 00:53:52;;;;;;;13.53;12.43;;;22.70;24.60;;;;;;4926916;29;20538;-77
2023/09/11 00:56:18;;;;;;;14.23;13.23;;;22.70;24.80;;;;;;4928526;29;20427;-77
2023/09/11 00:58:44;;;;;;;13.33;12.53;;;22.60;24.90;;;;;;4926914;29;20900;-77
2023/09/11 01:01:11;;;;;;;12.90;12.00;;;22.70;25.20;;;;;;4925376;29;20188;-76
2023/09/11 01:03:37;;;;;;;14.60;13.40;;;22.60;25.20;;;;;;4921777;29;20556;-77
2023/09/11 01:06:03;;;;;;;13.20;12.40;;;22.60;25.20;;;;;;4928621;29;20428;-76
2023/09/11 01:08:28;;;;;;;13.30;12.60;;;22.60;25.40;;;;;;4928430;29;20451;-77
2023/09/11 01:10:56;;;;;;;13.73;12.77;;;22.60;25.50;;;;;;4925147;29;20233;-77
2023/09/11 01:13:23;;;;;;;13.67;12.67;;;22.60;25.50;;;;;;4924913;29;20720;-77
2023/09/11 01:16:02;;;;;;;14.57;13.23;;;22.50;25.40;;;;;;4926881;29;20456;-77
2023/09/11 01:18:33;;;;;;;13.60;12.70;;;22.60;25.30;;;;;;4927524;29;20467;-76
2023/09/11 01:21:07;;;;;;;14.07;13.17;;;22.50;25.30;;;;;;4923990;29;20440;-77
2023/09/11 01:24:05;;;;;;;14.00;13.13;;;22.50;25.20;;;;;;4919348;29;20556;-77
2023/09/11 01:27:08;;;;;;;13.60;12.70;;;22.50;25.40;;;;;;4909984;29;20432;-77
2023/09/11 01:29:35;;;;;;;14.50;13.50;;;22.50;25.50;;;;;;4920306;29;20487;-77
2023/09/11 01:32:02;;;;;;;14.00;13.10;;;22.50;25.80;;;;;;4916269;29;20429;-77
2023/09/11 01:34:28;;;;;;;14.10;13.20;;;22.50;25.70;;;;;;4923844;29;20441;-76
2023/09/11 01:36:53;;;;;;;13.60;12.83;;;22.50;25.60;;;;;;4926017;29;20553;-77
2023/09/11 01:39:19;;;;;;;13.30;12.50;;;22.50;25.70;;;;;;4941485;29;20640;-76
2023/09/11 01:41:47;;;;;;;13.53;12.70;;;22.50;26.30;;;;;;4925341;29;20274;-76
2023/09/11 01:44:18;;;;;;;13.13;12.33;;;22.50;25.60;;;;;;4923784;29;20517;-77
2023/09/11 01:46:47;;;;;;;12.90;12.00;;;22.50;25.60;;;;;;4925227;29;20559;-77
2023/09/11 01:49:15;;;;;;;13.57;12.67;;;22.50;25.60;;;;;;4926458;29;20447;-77
2023/09/11 01:51:41;;;;;;;13.73;12.93;;;22.40;25.50;;;;;;4919298;29;20517;-77
2023/09/11 01:54:08;;;;;;;14.40;13.50;;;22.40;25.80;;;;;;4926802;29;20428;-77
2023/09/11 01:56:35;;;;;;;13.50;12.73;;;22.40;25.90;;;;;;4926863;29;20664;-77
2023/09/11 01:59:01;;;;;;;15.00;14.00;;;22.40;26.00;;;;;;4922972;29;21188;-77
2023/09/11 02:01:27;;;;;;;13.50;12.70;;;22.40;26.10;;;;;;4923084;29;20467;-77
2023/09/11 02:03:52;;;;;;;14.77;13.50;;;22.40;26.10;;;;;;4924657;29;20496;-77
2023/09/11 02:06:18;;;;;;;13.80;12.90;;;22.40;26.20;;;;;;4926571;29;20188;-76
2023/09/11 02:08:43;;;;;;;14.20;13.30;;;22.40;26.20;;;;;;4939862;29;20216;-76
2023/09/11 02:11:10;;;;;;;13.80;12.80;;;22.30;26.20;;;;;;4922933;29;20641;-77
2023/09/11 02:13:36;;;;;;;14.50;13.60;;;22.30;26.20;;;;;;4922944;29;20189;-76
2023/09/11 02:16:02;;;;;;;13.97;13.10;;;22.30;26.50;;;;;;4926387;29;20428;-76
2023/09/11 02:18:27;;;;;;;13.82;13.02;;;22.30;26.40;;;;;;4891269;29;1025892;-77
2023/09/11 02:20:53;;;;;;;13.50;12.70;;;22.30;26.10;;;;;;4924640;29;20196;-77
2023/09/11 02:23:18;;;;;;;13.60;12.70;;;22.30;26.00;;;;;;4923341;29;20218;-77
2023/09/11 02:25:44;;;;;;;13.00;12.10;;;22.30;25.80;;;;;;4922864;29;20184;-77
2023/09/11 02:28:10;;;;;;;13.30;12.40;;;22.30;25.70;;;;;;4926656;29;20672;-77
2023/09/11 02:30:35;;;;;;;12.53;11.63;;;22.20;25.70;;;;;;4926500;29;20432;-76
2023/09/11 02:33:02;;;;;;;13.10;12.20;;;22.20;25.70;;;;;;4923453;29;20196;-77
2023/09/11 02:35:27;;;;;;;13.33;12.63;;;22.20;25.90;;;;;;4923458;29;20184;-76
2023/09/11 02:37:53;;;;;;;14.23;13.17;;;22.20;25.90;;;;;;4925285;29;20484;-77
2023/09/11 02:40:18;;;;;;;14.27;13.37;;;22.20;26.20;;;;;;4926609;29;20191;-76
2023/09/11 02:42:44;;;;;;;15.00;13.90;;;22.10;26.50;;;;;;4925845;29;20192;-77
2023/09/11 02:45:09;;;;;;;14.23;12.83;;;22.10;26.70;;;;;;4923416;29;20188;-77
2023/09/11 02:47:35;;;;;;;13.20;12.30;;;22.00;26.60;;;;;;4923597;29;20248;-77
2023/09/11 02:50:01;;;;;;;13.30;12.33;;;22.00;26.60;;;;;;4925729;29;20768;-77
2023/09/11 02:52:26;;;;;;;15.37;14.13;;;22.00;26.60;;;;;;4926583;29;20187;-76
2023/09/11 02:54:51;;;;;;;13.97;13.07;;;22.00;26.70;;;;;;4924726;29;20188;-77
2023/09/11 02:57:17;;;;;;;13.67;12.93;;;22.00;26.70;;;;;;4923261;29;20653;-77
2023/09/11 02:59:43;;;;;;;14.17;13.17;;;22.00;26.60;;;;;;4922896;29;20209;-76
2023/09/11 03:02:09;;;;;;;14.10;13.20;;;22.00;26.50;;;;;;4926496;29;20194;-77
2023/09/11 03:04:35;;;;;;;14.70;13.67;;;22.00;26.70;;;;;;4926671;29;20243;-76
2023/09/11 03:07:00;;;;;;;14.33;13.43;;;22.00;26.70;;;;;;4923901;29;20503;-76
2023/09/11 03:09:27;;;;;;;14.43;13.30;;;22.00;26.80;;;;;;4923092;29;20219;-77
2023/09/11 03:11:53;;;;;;;14.30;13.50;;;22.00;26.70;;;;;;4939505;29;20185;-77
2023/09/11 03:14:18;;;;;;;15.30;14.40;;;21.90;26.60;;;;;;4926437;29;20927;-77
2023/09/11 03:16:44;;;;;;;14.03;13.13;;;21.90;26.70;;;;;;4928942;29;20235;-77
2023/09/11 03:19:10;;;;;;;14.97;13.97;;;21.90;26.80;;;;;;4925972;29;20212;-77
2023/09/11 03:21:36;;;;;;;15.70;14.77;;;21.90;26.70;;;;;;4927235;29;20271;-77
2023/09/11 03:24:02;;;;;;;14.47;13.47;;;21.90;26.80;;;;;;4930074;29;20560;-77
2023/09/11 03:26:28;;;;;;;15.20;14.30;;;21.90;26.80;;;;;;4945280;29;20190;-76
2023/09/11 03:28:53;;;;;;;14.73;13.83;;;21.90;26.90;;;;;;4928302;29;20531;-77
2023/09/11 03:31:19;;;;;;;15.27;14.30;;;21.80;27.00;;;;;;4924042;29;20180;-76
2023/09/11 03:33:45;;;;;;;15.67;14.77;;;21.90;26.90;;;;;;4929185;29;20192;-77
2023/09/11 03:36:18;;;;;;;14.93;14.03;;;21.90;27.00;;;;;;4947104;29;20246;-76
2023/09/11 03:38:44;;;;;;;14.50;13.60;;;21.80;27.00;;;;;;4928803;29;20483;-76
2023/09/11 03:41:09;;;;;;;15.20;13.97;;;21.80;27.10;;;;;;4925934;29;20791;-77
2023/09/11 03:43:35;;;;;;;15.00;14.13;;;21.80;27.10;;;;;;4926619;29;20467;-76
2023/09/11 03:46:01;;;;;;;15.50;14.60;;;21.80;27.10;;;;;;4929348;29;20280;-77
2023/09/11 03:48:27;;;;;;;16.20;14.90;;;21.80;27.20;;;;;;4930625;29;21018;-76
2023/09/11 03:50:52;;;;;;;15.43;14.20;;;21.80;27.60;;;;;;4928807;29;20250;-77
2023/09/11 03:53:18;;;;;;;17.30;16.10;;;21.80;27.80;;;;;;4926653;29;20221;-77
2023/09/11 03:55:43;;;;;;;16.77;15.77;;;21.70;28.00;;;;;;4927140;29;20201;-76
2023/09/11 03:58:11;;;;;;;16.53;15.43;;;21.80;28.40;;;;;;4929700;29;20191;-76
2023/09/11 04:00:36;;;;;;;18.63;17.03;;;21.70;28.40;;;;;;4944419;29;20282;-76
2023/09/11 04:03:03;;;;;;;16.93;15.63;;;21.70;28.60;;;;;;4927253;29;20610;-76
2023/09/11 04:05:29;;;;;;;16.70;15.73;;;21.70;29.00;;;;;;4941450;29;20193;-76
2023/09/11 04:07:55;;;;;;;17.73;16.43;;;21.70;29.10;;;;;;4928203;29;20451;-77
2023/09/11 04:10:20;;;;;;;17.67;16.57;;;21.70;29.30;;;;;;4929944;29;20179;-77
2023/09/11 04:12:46;;;;;;;17.77;16.60;;;21.70;29.40;;;;;;4929785;29;20420;-77
2023/09/11 04:15:11;;;;;;;16.40;15.40;;;21.60;29.50;;;;;;4926755;29;20220;-76
2023/09/11 04:17:37;;;;;;;17.50;16.47;;;21.60;29.40;;;;;;4926723;29;20207;-76
2023/09/11 04:20:03;;;;;;;17.87;16.77;;;21.60;29.30;;;;;;4928609;29;20224;-76
2023/09/11 04:22:28;;;;;;;17.70;16.50;;;21.60;29.30;;;;;;4936994;29;20192;-77
2023/09/11 04:24:54;;;;;;;17.17;15.97;;;21.60;29.10;;;;;;4928689;29;20546;-77
2023/09/11 04:27:19;;;;;;;17.63;16.57;;;21.50;28.90;;;;;;4921791;29;20589;-76
2023/09/11 04:29:45;;;;;;;17.70;16.70;;;21.50;28.90;;;;;;4922683;29;20215;-76
2023/09/11 04:32:12;;;;;;;17.53;16.37;;;21.50;28.80;;;;;;4929548;29;20653;-78
2023/09/11 04:34:38;;;;;;;18.47;17.47;;;21.60;28.70;;;;;;4938846;29;20184;-76
2023/09/11 04:37:03;;;;;;;18.03;16.93;;;21.60;28.70;;;;;;4927120;29;20440;-76
2023/09/11 04:39:29;;;;;;;17.73;16.43;;;21.60;28.70;;;;;;4928872;29;20254;-76
2023/09/11 04:41:54;;;;;;;16.40;15.23;;;21.60;28.70;;;;;;4942549;29;20192;-76
2023/09/11 04:44:20;;;;;;;16.37;15.40;;;21.50;28.70;;;;;;4922071;29;20209;-76
2023/09/11 04:46:45;;;;;;;18.03;16.93;;;21.60;28.70;;;;;;4923363;29;20189;-77
2023/09/11 04:49:11;;;;;;;17.37;16.33;;;21.60;28.80;;;;;;4929690;29;20578;-76
2023/09/11 04:51:36;;;;;;;17.27;16.27;;;21.50;28.80;;;;;;4929255;29;20180;-76
2023/09/11 04:54:02;;;;;;;17.37;16.30;;;21.50;28.80;;;;;;4941399;29;20199;-76
2023/09/11 04:56:27;;;;;;;17.10;16.00;;;21.50;28.90;;;;;;4921398;29;20225;-77
2023/09/11 04:58:53;;;;;;;19.43;17.90;;;21.50;28.80;;;;;;4938855;29;20236;-76
2023/09/11 05:01:19;;;;;;;17.87;16.77;;;21.40;29.00;;;;;;4928684;29;20270;-76
2023/09/11 05:03:44;;;;;;;17.20;16.03;;;21.40;29.00;;;;;;4928822;29;20208;-76
2023/09/11 05:06:10;;;;;;;17.53;16.43;;;21.40;29.10;;;;;;4925468;29;20181;-76
2023/09/11 05:08:35;;;;;;;18.57;17.37;;;21.40;29.10;;;;;;4925785;29;20236;-76
2023/09/11 05:11:01;;;;;;;17.70;16.53;;;21.40;29.20;;;;;;4927062;29;20181;-76
2023/09/11 05:13:27;;;;;;;17.53;16.43;;;21.40;29.80;;;;;;4928363;29;20675;-76
2023/09/11 05:15:53;;;;;;;17.20;16.20;;;21.40;29.20;;;;;;4927178;29;20464;-76
2023/09/11 05:21:40;;;;;;;17.00;16.10;;;21.40;29.40;;;;;;4886639;29;20236;-75
2023/09/11 05:24:06;;;;;;;17.93;16.87;;;21.50;29.50;;;;;;4880363;29;20545;-77
2023/09/11 05:26:32;;;;;;;17.57;16.47;;;21.40;29.40;;;;;;4950075;29;20470;-81
2023/09/11 05:28:57;;;;;;;18.13;17.03;;;21.40;29.40;;;;;;4931894;29;20223;-77
2023/09/11 05:31:23;;;;;;;18.20;17.00;;;21.40;29.20;;;;;;4919026;29;20429;-77
2023/09/11 05:33:49;;;;;;;17.80;16.80;;;21.40;29.30;;;;;;4917020;29;20224;-77
2023/09/11 05:36:14;;;;;;;18.57;17.47;;;21.40;29.50;;;;;;4918426;29;20189;-77
2023/09/11 05:38:40;;;;;;;17.43;16.33;;;21.40;29.30;;;;;;4926861;29;20244;-78
2023/09/11 05:41:06;;;;;;;19.10;17.87;;;21.40;29.30;;;;;;4921440;29;20207;-77
2023/09/11 05:43:32;;;;;;;18.43;17.13;;;21.50;29.40;;;;;;4907516;29;20476;-76
2023/09/11 05:45:57;;;;;;;19.10;17.93;;;21.40;29.40;;;;;;4915527;29;20591;-75
2023/09/11 05:48:23;;;;;;;18.63;17.43;;;21.40;29.40;;;;;;4916361;29;20185;-77
2023/09/11 05:50:49;;;;;;;17.93;16.43;;;21.30;29.30;;;;;;4917712;29;20195;-77
2023/09/11 05:53:14;;;;;;;18.50;17.20;;;21.30;29.30;;;;;;4922942;29;20285;-77
2023/09/11 05:55:40;;;;;;;18.93;17.83;;;21.40;29.20;;;;;;4927608;29;20275;-76
2023/09/11 05:58:05;;;;;;;18.63;17.40;;;21.30;29.20;;;;;;4924957;29;20188;-77
2023/09/11 06:00:31;;;;;;;17.93;16.57;;;21.40;29.10;;;;;;4917264;29;20280;-77
2023/09/11 06:02:56;;;;;;;18.50;17.27;;;21.40;29.20;;;;;;4916264;29;20239;-77
2023/09/11 06:05:23;;;;;;;18.60;17.40;;;21.40;29.80;;;;;;4916183;29;20567;-77
2023/09/11 06:07:48;;;;;;;18.70;17.60;;;21.40;29.00;;;;;;4916209;29;20567;-77
2023/09/11 06:10:14;;;;;;;18.50;17.40;;;21.40;29.10;;;;;;4930046;29;20604;-77
2023/09/11 06:12:40;;;;;;;19.43;18.00;;;21.40;29.20;;;;;;4917062;29;20592;-78
2023/09/11 06:15:06;;;;;;;18.63;17.57;;;21.50;29.30;;;;;;4916124;29;20267;-77
2023/09/11 06:17:32;;;;;;;19.07;17.97;;;21.50;29.00;;;;;;4916037;29;20271;-77
2023/09/11 06:19:58;;;;;;;18.97;17.20;;;21.50;28.80;;;;;;4915128;29;20881;-77
2023/09/11 06:22:23;;;;;;;17.93;16.67;;;21.60;28.70;;;;;;4915735;29;20437;-77
2023/09/11 06:24:49;;;;;;;17.30;16.30;;;21.60;28.30;;;;;;4915660;29;20672;-77
2023/09/11 06:27:15;;;;;;;19.47;17.70;;;21.60;28.50;;;;;;4922837;29;20193;-77
2023/09/11 06:29:41;;;;;;;17.27;16.00;;;21.60;28.40;;;;;;4916298;29;20993;-78
2023/09/11 06:32:07;;;;;;;17.90;16.70;;;21.70;28.30;;;;;;4917076;29;20296;-76
2023/09/11 06:34:33;;;;;;;19.33;17.90;;;21.70;28.20;;;;;;4925039;29;20188;-77
2023/09/11 06:36:59;;;;;;;19.63;18.23;;;21.70;28.60;;;;;;4922934;29;20444;-77
2023/09/11 06:39:24;;;;;;;18.50;17.50;;;21.60;28.10;;;;;;4919983;29;20460;-78
2023/09/11 06:41:50;;;;;;;18.47;16.63;;;21.70;27.70;;;;;;4932647;29;20188;-76
2023/09/11 06:44:16;;;;;;;19.83;18.07;;;21.70;27.80;;;;;;4915434;29;20208;-77
2023/09/11 06:46:41;;;;;;;18.97;17.30;;;21.70;27.80;;;;;;4916877;29;20189;-76
2023/09/11 06:49:07;;;;;;;18.57;17.33;;;21.70;28.10;;;;;;4918729;29;20200;-77
2023/09/11 06:51:33;;;;;;;19.73;18.20;;;21.70;28.20;;;;;;4922530;29;20187;-78
2023/09/11 06:53:58;;;;;;;17.77;16.30;;;21.70;28.00;;;;;;4922937;29;20239;-78
2023/09/11 06:56:24;;;;;;;18.43;17.43;;;21.80;28.00;;;;;;4938325;29;20193;-78
2023/09/11 06:58:50;;;;;;;19.53;17.93;;;21.80;28.00;;;;;;4923179;29;20201;-77
2023/09/11 07:01:15;;;;;;;17.00;16.10;;;21.80;27.80;;;;;;4923599;29;20201;-77
2023/09/11 07:03:41;;;;;;;19.50;18.10;;;21.90;28.10;;;;;;4938494;29;20212;-76
2023/09/11 07:06:07;;;;;;;19.27;17.80;;;21.90;27.60;;;;;;4937753;29;20267;-78
2023/09/11 07:08:33;;;;;;;19.50;18.10;;;21.90;27.30;;;;;;4923068;29;20436;-79
2023/09/11 07:10:59;;;;;;;17.93;16.47;;;21.90;27.60;;;;;;4940289;29;20447;-78
2023/09/11 07:13:25;;;;;;;18.63;17.20;;;22.00;27.70;;;;;;4939243;29;20553;-78
2023/09/11 07:15:59;;;;;;;20.40;18.60;;;22.00;27.70;;;;;;4940053;29;20591;-78
2023/09/11 07:18:25;;;;;;;20.60;19.20;;;22.00;27.20;;;;;;4917440;29;20199;-77
2023/09/11 07:20:52;;;;;;;19.77;18.20;;;22.10;27.10;;;;;;4923834;29;20940;-79
2023/09/11 07:23:24;;;;;;;18.67;17.57;;;22.10;27.10;;;;;;4938839;29;20483;-78
2023/09/11 07:25:56;;;;;;;19.17;17.97;;;22.20;27.00;;;;;;4924134;29;20431;-78
2023/09/11 07:28:27;;;;;;;21.17;19.50;;;22.20;26.70;;;;;;4938105;29;20429;-78
2023/09/11 07:30:53;;;;;;;19.47;18.00;;;22.20;26.70;;;;;;4924386;29;20845;-79
2023/09/11 07:33:19;;;;;;;19.13;17.77;;;22.20;26.60;;;;;;4923946;29;20797;-78
2023/09/11 07:35:45;;;;;;;19.80;18.40;;;22.30;26.70;;;;;;4938172;29;20448;-79
2023/09/11 07:38:11;;;;;;;19.43;18.03;;;22.40;26.70;;;;;;4923201;29;20433;-78
2023/09/11 07:40:37;;;;;;;19.00;17.80;;;22.40;26.90;;;;;;4922403;29;20225;-77
2023/09/11 07:43:03;;;;;;;21.03;19.47;;;22.40;26.60;;;;;;4921665;29;20275;-75
2023/09/11 07:45:28;;;;;;;20.30;18.83;;;22.40;26.40;;;;;;4921364;29;20423;-75
2023/09/11 07:47:54;;;;;;;20.33;18.77;;;22.50;26.30;;;;;;4917561;29;20188;-74
2023/09/11 07:50:20;;;;;;;20.77;18.60;;;22.50;26.00;;;;;;4917784;29;20215;-77
2023/09/11 07:52:46;;;;;;;18.97;17.77;;;22.60;26.30;;;;;;4925889;29;20219;-77
2023/09/11 07:55:11;;;;;;;18.17;17.00;;;22.60;26.10;;;;;;4932213;29;20444;-77
2023/09/11 07:57:40;;;;;;;19.37;17.97;;;22.70;26.40;;;;;;4925640;29;20197;-78
2023/09/11 08:00:07;;;;;;;18.37;17.17;;;22.70;26.60;;;;;;4911790;29;20204;-79
2023/09/11 08:02:33;;;;;;;18.67;17.30;;;22.70;26.50;;;;;;4918162;29;20436;-76
2023/09/11 08:04:59;;;;;;;21.27;19.67;;;22.80;26.10;;;;;;4910745;29;20797;-76
2023/09/11 08:07:25;;;;;;;19.33;18.03;;;22.80;25.80;;;;;;4933237;29;20431;-75
2023/09/11 08:09:53;;;;;;;21.10;19.43;;;22.90;25.80;;;;;;4917208;29;20673;-75
2023/09/11 08:12:19;;;;;;;20.27;19.07;;;22.90;25.60;;;;;;4907360;29;20181;-76
2023/09/11 08:14:45;;;;;;;19.33;17.80;;;23.00;25.60;;;;;;4932207;29;20436;-76
2023/09/11 08:17:10;;;;;;;19.50;18.10;;;23.00;25.40;;;;;;4929716;29;20728;-77
2023/09/11 08:19:37;;;;;;;19.30;18.10;;;23.10;25.50;;;;;;4919360;29;20676;-75
2023/09/11 08:22:03;;;;;;;18.63;17.47;;;23.10;25.60;;;;;;4911265;29;20275;-77
2023/09/11 08:24:29;;;;;;;19.23;17.87;;;23.20;25.60;;;;;;4913234;29;20473;-77
2023/09/11 08:26:55;;;;;;;18.37;17.13;;;23.20;25.70;;;;;;4928596;29;20193;-77
2023/09/11 08:29:20;;;;;;;18.83;17.30;;;23.30;24.60;;;;;;4931770;29;20453;-76
2023/09/11 08:31:46;;;;;;;16.83;15.70;;;23.40;24.70;;;;;;4917595;29;20208;-77
2023/09/11 08:34:12;;;;;;;17.30;16.10;;;23.40;24.60;;;;;;4917792;29;20448;-77
2023/09/11 08:36:38;;;;;;;17.27;16.07;;;23.40;24.60;;;;;;4917535;29;20612;-76
2023/09/11 08:39:03;;;;;;;16.40;15.37;;;23.50;24.60;;;;;;4909133;29;20461;-76
2023/09/11 08:41:29;;;;;;;16.67;15.57;;;23.60;24.40;;;;;;4917489;29;20624;-76
2023/09/11 08:43:55;;;;;;;18.03;16.50;;;23.60;24.10;;;;;;4917767;29;20700;-77
2023/09/11 08:46:22;;;;;;;17.57;16.27;;;23.70;24.20;;;;;;4915182;29;20182;-77
2023/09/11 08:48:57;;;;;;;17.50;16.10;;;23.70;24.80;;;;;;4902983;29;20604;-76
2023/09/11 08:51:34;;;;;;;17.03;15.80;;;23.80;24.10;;;;;;4922163;29;20424;-75
2023/09/11 08:54:02;;;;;;;16.10;14.93;;;23.90;23.60;;;;;;4923274;29;20439;-73
2023/09/11 08:56:29;;;;;;;18.90;17.50;;;24.00;23.40;;;;;;4925338;29;20454;-74
2023/09/11 08:58:55;;;;;;;17.37;16.07;;;24.10;23.50;;;;;;4921157;29;20480;-77
2023/09/11 09:01:21;;;;;;;17.20;16.00;;;24.20;23.50;;;;;;4929375;29;20512;-75
2023/09/11 09:03:50;;;;;;;17.17;16.07;;;24.20;23.90;;;;;;4921681;29;20465;-75
2023/09/11 09:06:18;;;;;;;16.60;15.27;;;24.40;22.70;;;;;;4928207;29;20968;-76
2023/09/11 09:08:44;;;;;;;17.07;15.77;;;24.80;22.40;;;;;;4932097;29;20456;-77
2023/09/11 09:11:10;;;;;;;17.07;15.83;;;25.00;22.10;;;;;;4917619;29;20433;-75
2023/09/11 09:13:36;;;;;;;15.40;14.30;;;25.20;21.70;;;;;;4911301;29;20441;-75
2023/09/11 09:16:02;;;;;;;16.00;15.00;;;25.50;21.60;;;;;;4915987;29;20441;-75
2023/09/11 09:18:28;;;;;;;14.80;13.60;;;25.70;20.50;;;;;;4909941;29;20184;-75
2023/09/11 09:20:57;;;;;;;16.87;15.80;;;25.90;20.40;;;;;;4921045;29;20507;-76
2023/09/11 09:23:35;;;;;;;16.10;14.70;;;26.10;19.00;;;;;;4916756;29;20475;-75
2023/09/11 09:26:09;;;;;;;14.47;13.47;;;26.30;18.90;;;;;;4917047;29;21000;-76
2023/09/11 09:28:42;;;;;;;15.00;13.73;;;26.50;18.10;;;;;;4920768;29;20444;-75
2023/09/11 09:31:08;;;;;;;14.60;13.60;;;26.60;18.30;;;;;;4918458;29;20419;-75
2023/09/11 09:33:34;;;;;;;13.93;12.80;;;26.70;18.40;;;;;;4919905;29;20429;-76
2023/09/11 09:36:00;;;;;;;15.07;13.77;;;26.90;18.10;;;;;;4910462;29;20433;-77
2023/09/11 09:38:26;;;;;;;13.90;13.00;;;26.90;16.90;;;;;;4908365;29;20457;-76
2023/09/11 09:40:54;;;;;;;14.47;13.40;;;27.00;17.50;;;;;;4911026;29;20188;-77
2023/09/11 09:43:21;;;;;;;14.50;13.40;;;27.20;17.60;;;;;;4916219;29;20563;-76
2023/09/11 09:45:47;;;;;;;15.77;14.40;;;27.30;17.30;;;;;;4916247;29;20880;-77
2023/09/11 09:48:15;;;;;;;14.47;13.57;;;27.30;16.80;;;;;;4926376;29;20942;-76
2023/09/11 09:51:01;;;;;;;15.27;14.27;;;27.40;15.90;;;;;;4922571;29;20540;-77
2023/09/11 09:53:30;;;;;;;15.30;14.20;;;27.50;17.10;;;;;;4911070;29;20428;-76
2023/09/11 09:55:59;;;;;;;15.87;14.03;;;27.60;16.80;;;;;;4915761;29;20439;-77
2023/09/11 09:58:28;;;;;;;17.80;12.93;;;27.70;15.90;;;;;;4905550;29;20437;-77
2023/09/11 10:01:03;;;;;;;15.50;14.10;;;27.70;15.10;;;;;;4925283;29;20443;-77
2023/09/11 10:03:41;;;;;;;18.50;16.90;;;27.60;14.60;;;;;;4911586;29;20464;-77
2023/09/11 10:06:08;;;;;;;14.60;13.70;;;27.70;15.30;;;;;;4903053;29;20516;-76
2023/09/11 10:08:34;;;;;;;17.63;16.23;;;27.70;14.20;;;;;;4915694;29;20906;-76
2023/09/11 10:11:00;;;;;;;14.60;13.40;;;27.70;14.60;;;;;;4914910;29;20433;-76
2023/09/11 10:13:30;;;;;;;14.40;13.50;;;27.80;14.60;;;;;;4907719;29;20488;-76
2023/09/11 10:15:56;;;;;;;14.97;13.73;;;27.90;14.00;;;;;;4915408;29;20192;-76
2023/09/11 10:18:23;;;;;;;14.73;13.77;;;27.90;14.30;;;;;;4922487;29;20442;-76
2023/09/11 10:20:49;;;;;;;15.10;14.17;;;27.90;13.90;;;;;;4914858;29;20287;-76
2023/09/11 10:23:15;;;;;;;14.33;13.23;;;28.00;13.90;;;;;;4915260;29;20468;-77
2023/09/11 10:25:50;;;;;;;14.40;13.27;;;28.00;13.60;;;;;;4907712;29;20940;-77
2023/09/11 10:28:44;;;;;;;14.90;13.87;;;28.00;13.40;;;;;;4915368;29;20420;-75
2023/09/11 10:31:32;;;;;;;14.30;13.30;;;28.10;13.40;;;;;;4913035;29;20520;-76
2023/09/11 10:34:00;;;;;;;14.83;13.57;;;28.30;12.50;;;;;;4915945;29;20432;-77
2023/09/11 10:36:31;;;;;;;15.90;12.73;;;28.40;12.30;;;;;;4920889;29;20457;-75
2023/09/11 10:39:00;;;;;;;14.03;12.70;;;28.50;11.80;;;;;;4909045;29;20560;-77
2023/09/11 10:41:26;;;;;;;14.37;13.17;;;28.40;12.10;;;;;;4914273;29;21028;-75
2023/09/11 10:43:52;;;;;;;15.30;14.20;;;28.40;12.30;;;;;;4910408;29;20472;-75
2023/09/11 10:46:21;;;;;;;14.70;13.70;;;28.50;11.80;;;;;;4924243;29;20499;-75
2023/09/11 10:48:46;;;;;;;13.50;12.70;;;28.60;11.60;;;;;;4910863;29;20244;-75
2023/09/11 10:51:13;;;;;;;13.23;12.43;;;28.60;11.10;;;;;;4916003;29;20535;-76
2023/09/11 10:53:40;;;;;;;13.83;13.03;;;28.60;11.10;;;;;;4925662;29;20649;-75
2023/09/11 10:56:06;;;;;;;15.10;14.00;;;28.60;11.70;;;;;;4915920;29;20468;-77
2023/09/11 10:58:32;;;;;;;15.63;14.53;;;28.60;11.60;;;;;;4915631;29;20983;-75
2023/09/11 11:00:58;;;;;;;15.40;14.30;;;28.60;11.00;;;;;;4910112;29;20196;-77
2023/09/11 11:03:30;;;;;;;13.60;12.70;;;28.60;11.10;;;;;;4914986;29;20208;-76
2023/09/11 11:05:57;;;;;;;14.07;13.10;;;28.60;11.30;;;;;;4915551;29;20439;-77
2023/09/11 11:08:23;;;;;;;14.70;13.70;;;28.50;11.00;;;;;;4915244;29;20874;-77
2023/09/11 11:10:55;;;;;;;14.03;12.83;;;28.50;11.20;;;;;;4907301;29;20457;-76
2023/09/11 11:13:21;;;;;;;14.37;13.47;;;28.40;11.40;;;;;;4913848;29;20252;-76
2023/09/11 11:15:47;;;;;;;14.47;13.17;;;28.40;11.60;;;;;;4914904;29;20439;-76
2023/09/11 11:18:23;;;;;;;14.53;13.43;;;28.40;11.30;;;;;;4915123;29;20535;-77
2023/09/11 11:21:00;;;;;;;14.07;12.87;;;28.50;11.20;;;;;;4906805;29;20603;-76
2023/09/11 11:23:28;;;;;;;14.47;13.53;;;28.50;10.90;;;;;;4914871;29;20464;-76
2023/09/11 11:25:54;;;;;;;14.40;13.50;;;28.50;10.90;;;;;;4907304;29;20432;-76
2023/09/11 11:28:23;;;;;;;14.30;13.23;;;28.70;11.00;;;;;;4910137;29;20429;-77
2023/09/11 11:30:52;;;;;;;13.67;12.77;;;28.60;11.00;;;;;;4914638;29;20293;-76
2023/09/11 11:33:22;;;;;;;12.97;12.07;;;28.50;11.00;;;;;;4915001;29;20441;-75
2023/09/11 11:35:49;;;;;;;14.63;13.57;;;28.50;10.20;;;;;;4915132;29;20433;-77
2023/09/11 11:38:19;;;;;;;14.47;13.43;;;28.50;10.60;;;;;;4931844;29;20837;-77
2023/09/11 11:40:45;;;;;;;14.13;12.80;;;28.50;10.60;;;;;;4926530;29;20440;-76
2023/09/11 11:43:12;;;;;;;13.87;12.53;;;28.40;10.80;;;;;;4918331;29;20509;-76
2023/09/11 11:45:42;;;;;;;13.13;12.27;;;28.40;10.70;;;;;;4918599;29;20919;-77
2023/09/11 11:48:11;;;;;;;12.17;11.40;;;28.30;10.50;;;;;;4918440;29;20432;-78
2023/09/11 11:50:46;;;;;;;12.90;12.10;;;28.30;11.10;;;;;;4917424;29;20456;-78
2023/09/11 11:53:20;;;;;;;12.27;11.47;;;28.30;10.50;;;;;;4912195;29;20796;-76
2023/09/11 11:55:46;;;;;;;12.97;12.10;;;28.30;10.10;;;;;;4919693;29;20438;-76
2023/09/11 11:58:13;;;;;;;14.23;12.87;;;28.20;9.30;;;;;;4922808;29;20468;-77
2023/09/11 12:00:40;;;;;;;13.43;12.40;;;28.30;10.10;;;;;;4911467;29;20872;-77
2023/09/11 12:03:09;;;;;;;14.03;13.10;;;28.40;9.90;;;;;;4918230;29;20431;-78
2023/09/11 12:05:43;;;;;;;12.97;12.03;;;28.50;10.10;;;;;;4911776;29;20525;-78
2023/09/11 12:08:11;;;;;;;13.60;12.53;;;28.40;9.30;;;;;;4918146;29;20425;-76
2023/09/11 12:10:44;;;;;;;13.33;12.27;;;28.40;9.90;;;;;;4917775;29;20524;-77
2023/09/11 12:13:13;;;;;;;12.50;11.37;;;28.40;9.30;;;;;;4917888;29;20484;-77
2023/09/11 12:15:39;;;;;;;13.77;12.63;;;28.40;8.00;;;;;;4918051;29;20507;-76
2023/09/11 12:18:05;;;;;;;13.33;12.17;;;28.40;8.90;;;;;;4918763;29;20432;-76
2023/09/11 12:20:31;;;;;;;12.90;12.00;;;28.30;9.30;;;;;;4919140;29;20212;-76
2023/09/11 12:23:01;;;;;;;12.50;11.60;;;28.30;9.40;;;;;;4917182;29;20762;-78
2023/09/11 12:25:26;;;;;;;17.77;16.13;;;28.40;9.70;;;;;;4916377;29;20425;-77
2023/09/11 12:27:53;;;;;;;14.03;13.13;;;28.40;9.30;;;;;;4915845;29;20437;-77
2023/09/11 12:30:18;;;;;;;11.97;11.37;;;28.40;9.30;;;;;;4916948;29;20208;-76